createdAt,value
2018-09-09T00:00:36.924Z,20.90
2018-09-09T00:03:05.208Z,20.90
2018-09-09T00:05:33.484Z,21.00
2018-09-09T00:08:01.757Z,21.10
2018-09-09T00:10:30.011Z,21.20
2018-09-09T00:12:58.287Z,21.20
2018-09-09T00:15:26.550Z,21.20
2018-09-09T00:17:54.832Z,21.10
2018-09-09T00:20:23.124Z,21.10
2018-09-09T00:22:51.390Z,21.10
2018-09-09T00:25:19.685Z,21.00
2018-09-09T00:27:47.959Z,21.00
2018-09-09T00:30:16.251Z,21.00
2018-09-09T00:32:44.540Z,20.90
2018-09-09T00:35:12.887Z,21.00
2018-09-09T00:37:41.152Z,20.90
2018-09-09T00:40:09.427Z,20.90
2018-09-09T00:42:37.707Z,20.90
2018-09-09T00:45:06.159Z,20.90
2018-09-09T00:47:35.243Z,20.90
2018-09-09T00:50:09.021Z,20.90
2018-09-09T00:53:41.331Z,20.90
2018-09-09T00:56:09.634Z,21.00
2018-09-09T00:58:38.999Z,21.10
2018-09-09T01:01:12.573Z,21.10
2018-09-09T01:03:40.849Z,21.10
2018-09-09T01:06:09.674Z,21.10
2018-09-09T01:08:37.965Z,21.10
2018-09-09T01:11:06.695Z,21.10
2018-09-09T01:13:34.953Z,21.00
2018-09-09T01:16:03.236Z,21.00
2018-09-09T01:18:31.797Z,21.00
2018-09-09T01:21:00.148Z,20.90
2018-09-09T01:23:28.412Z,20.90
2018-09-09T01:25:56.716Z,20.90
2018-09-09T01:28:24.973Z,20.90
2018-09-09T01:30:53.304Z,20.90
2018-09-09T01:33:21.620Z,20.90
2018-09-09T01:35:49.898Z,20.90
2018-09-09T01:38:18.179Z,20.90
2018-09-09T01:40:46.643Z,21.00
2018-09-09T01:43:14.962Z,21.00
2018-09-09T01:45:43.280Z,21.10
2018-09-09T01:48:11.537Z,21.10
2018-09-09T01:50:39.811Z,21.10
2018-09-09T01:53:08.774Z,21.10
2018-09-09T01:55:37.052Z,21.10
2018-09-09T01:58:05.538Z,21.10
2018-09-09T02:00:33.856Z,21.00
2018-09-09T02:03:02.128Z,21.00
2018-09-09T02:05:30.394Z,21.00
2018-09-09T02:07:58.671Z,21.00
2018-09-09T02:10:26.923Z,20.90
2018-09-09T02:12:55.212Z,20.90
2018-09-09T02:15:23.612Z,20.90
2018-09-09T02:17:51.882Z,20.90
2018-09-09T02:20:20.174Z,20.90
2018-09-09T02:22:48.449Z,20.90
2018-09-09T02:25:17.820Z,20.90
2018-09-09T02:27:46.079Z,20.80
2018-09-09T02:30:14.357Z,20.80
2018-09-09T02:32:42.627Z,20.90
2018-09-09T02:35:10.901Z,21.00
2018-09-09T02:37:39.189Z,21.10
2018-09-09T02:40:07.434Z,21.00
2018-09-09T02:42:35.697Z,21.00
2018-09-09T02:45:03.955Z,21.00
2018-09-09T02:47:32.499Z,21.00
2018-09-09T02:50:00.828Z,21.00
2018-09-09T02:52:29.209Z,20.90
2018-09-09T02:54:57.479Z,20.90
2018-09-09T02:57:25.760Z,20.90
2018-09-09T02:59:54.125Z,20.80
2018-09-09T03:02:22.382Z,20.90
2018-09-09T03:04:50.711Z,20.80
2018-09-09T03:07:18.992Z,20.80
2018-09-09T03:09:47.284Z,20.80
2018-09-09T03:12:15.568Z,20.80
2018-09-09T03:14:43.850Z,20.80
2018-09-09T03:17:12.147Z,20.80
2018-09-09T03:19:40.412Z,20.80
2018-09-09T03:22:08.692Z,20.90
2018-09-09T03:24:36.941Z,21.00
2018-09-09T03:27:05.229Z,21.00
2018-09-09T03:29:33.494Z,21.00
2018-09-09T03:32:01.772Z,21.00
2018-09-09T03:34:30.051Z,21.00
2018-09-09T03:36:58.307Z,21.00
2018-09-09T03:39:26.585Z,21.00
2018-09-09T03:41:54.874Z,20.90
2018-09-09T03:44:23.134Z,20.90
2018-09-09T03:46:51.478Z,20.80
2018-09-09T03:49:19.741Z,20.80
2018-09-09T03:51:48.031Z,20.80
2018-09-09T03:54:16.303Z,20.90
2018-09-09T03:56:44.569Z,20.90
2018-09-09T03:59:12.864Z,20.90
2018-09-09T04:01:41.165Z,20.90
2018-09-09T04:04:09.439Z,20.80
2018-09-09T04:06:37.689Z,20.80
2018-09-09T04:09:07.135Z,20.80
2018-09-09T04:11:35.401Z,20.80
2018-09-09T04:14:03.663Z,20.80
2018-09-09T04:16:31.927Z,20.80
2018-09-09T04:19:00.189Z,20.80
2018-09-09T04:21:28.467Z,20.80
2018-09-09T04:23:56.735Z,20.80
2018-09-09T04:26:25.004Z,20.80
2018-09-09T04:28:53.279Z,20.80
2018-09-09T04:31:21.527Z,20.90
2018-09-09T04:33:49.797Z,20.90
2018-09-09T04:36:18.059Z,20.80
2018-09-09T04:38:46.337Z,20.80
2018-09-09T04:41:14.596Z,20.80
2018-09-09T04:43:42.868Z,20.80
2018-09-09T04:46:11.183Z,20.80
2018-09-09T04:48:39.390Z,20.80
2018-09-09T04:51:07.963Z,20.80
2018-09-09T04:53:36.230Z,20.70
2018-09-09T04:56:04.515Z,20.70
2018-09-09T04:58:32.782Z,20.70
2018-09-09T05:01:01.056Z,20.70
2018-09-09T05:03:29.320Z,20.70
2018-09-09T05:05:57.608Z,20.70
2018-09-09T05:08:25.875Z,20.70
2018-09-09T05:10:54.144Z,20.60
2018-09-09T05:13:22.450Z,20.60
2018-09-09T05:15:50.721Z,20.70
2018-09-09T05:18:18.999Z,20.70
2018-09-09T05:20:47.251Z,20.80
2018-09-09T05:23:15.540Z,20.90
2018-09-09T05:25:43.798Z,20.90
2018-09-09T05:28:12.070Z,20.80
2018-09-09T05:30:40.340Z,20.80
2018-09-09T05:33:08.612Z,20.80
2018-09-09T05:35:36.877Z,20.80
2018-09-09T05:38:05.533Z,20.70
2018-09-09T05:40:33.797Z,20.80
2018-09-09T05:43:02.080Z,20.70
2018-09-09T05:45:30.361Z,20.70
2018-09-09T05:47:58.616Z,20.70
2018-09-09T05:50:26.871Z,20.70
2018-09-09T05:52:55.142Z,20.70
2018-09-09T05:55:23.402Z,20.70
2018-09-09T05:57:51.767Z,20.60
2018-09-09T06:00:19.999Z,20.60
2018-09-09T06:02:48.289Z,20.60
2018-09-09T06:05:16.540Z,20.60
2018-09-09T06:07:44.834Z,20.60
2018-09-09T06:10:13.102Z,20.80
2018-09-09T06:12:41.389Z,20.80
2018-09-09T06:15:10.552Z,20.80
2018-09-09T06:17:38.830Z,20.80
2018-09-09T06:20:07.108Z,20.80
2018-09-09T06:22:35.417Z,20.80
2018-09-09T06:25:03.692Z,20.70
2018-09-09T06:27:31.972Z,20.70
2018-09-09T06:30:00.244Z,20.70
2018-09-09T06:32:28.521Z,20.70
2018-09-09T06:34:56.796Z,20.60
2018-09-09T06:37:25.068Z,20.60
2018-09-09T06:39:53.356Z,20.60
2018-09-09T06:42:21.674Z,20.60
2018-09-09T06:44:49.926Z,20.60
2018-09-09T06:47:18.171Z,20.60
2018-09-09T06:49:46.451Z,20.60
2018-09-09T06:52:14.723Z,20.60
2018-09-09T06:54:43.006Z,20.60
2018-09-09T06:57:11.337Z,20.70
2018-09-09T06:59:39.616Z,20.80
2018-09-09T07:02:08.172Z,20.90
2018-09-09T07:04:36.422Z,21.00
2018-09-09T07:07:04.802Z,21.00
2018-09-09T07:09:33.092Z,20.90
2018-09-09T07:12:01.476Z,20.90
2018-09-09T07:14:29.649Z,20.80
2018-09-09T07:16:57.982Z,20.80
2018-09-09T07:19:26.268Z,20.80
2018-09-09T07:21:54.577Z,20.70
2018-09-09T07:24:23.778Z,20.70
2018-09-09T07:26:52.064Z,20.70
2018-09-09T07:29:20.372Z,20.70
2018-09-09T07:31:48.698Z,20.70
2018-09-09T07:34:17.068Z,20.60
2018-09-09T07:36:45.334Z,20.60
2018-09-09T07:39:13.600Z,20.70
2018-09-09T07:41:41.872Z,20.70
2018-09-09T07:44:10.159Z,20.70
2018-09-09T07:46:38.452Z,20.70
2018-09-09T07:49:06.769Z,20.60
2018-09-09T07:51:35.069Z,20.60
2018-09-09T07:54:03.387Z,20.60
2018-09-09T07:56:31.679Z,20.70
2018-09-09T07:58:59.967Z,20.80
2018-09-09T08:01:28.229Z,20.90
2018-09-09T08:03:56.553Z,21.10
2018-09-09T08:06:24.862Z,21.10
2018-09-09T08:08:53.154Z,21.10
2018-09-09T08:11:21.486Z,21.00
2018-09-09T08:13:49.745Z,20.90
2018-09-09T08:16:18.015Z,20.80
2018-09-09T08:18:46.309Z,20.80
2018-09-09T08:21:14.590Z,20.80
2018-09-09T08:23:42.923Z,20.70
2018-09-09T08:26:11.217Z,20.70
2018-09-09T08:28:39.505Z,20.70
2018-09-09T08:31:07.796Z,20.70
2018-09-09T08:33:36.082Z,20.70
2018-09-09T08:36:05.227Z,20.70
2018-09-09T08:38:33.512Z,20.60
2018-09-09T08:41:01.817Z,20.70
2018-09-09T08:43:30.081Z,20.80
2018-09-09T08:45:58.377Z,20.80
2018-09-09T08:48:27.377Z,20.80
2018-09-09T08:50:55.653Z,20.80
2018-09-09T08:53:23.945Z,20.80
2018-09-09T08:55:52.236Z,20.80
2018-09-09T08:58:20.539Z,20.80
2018-09-09T09:00:48.837Z,20.70
2018-09-09T09:03:17.157Z,20.80
2018-09-09T09:05:45.418Z,20.70
2018-09-09T09:08:13.736Z,20.70
2018-09-09T09:10:42.023Z,20.70
2018-09-09T09:13:10.406Z,20.70
2018-09-09T09:15:38.679Z,20.70
2018-09-09T09:18:06.960Z,20.80
2018-09-09T09:20:35.333Z,20.90
2018-09-09T09:23:03.823Z,20.90
2018-09-09T09:25:32.135Z,20.90
2018-09-09T09:28:00.705Z,20.80
2018-09-09T09:30:28.989Z,20.80
2018-09-09T09:32:57.263Z,20.80
2018-09-09T09:35:30.828Z,20.80
2018-09-09T09:38:00.068Z,20.80
2018-09-09T09:40:28.405Z,20.80
2018-09-09T09:42:56.691Z,20.70
2018-09-09T09:45:25.118Z,20.80
2018-09-09T09:47:53.401Z,20.80
2018-09-09T09:50:21.665Z,20.80
2018-09-09T09:52:49.947Z,20.80
2018-09-09T09:55:18.271Z,20.70
2018-09-09T09:57:46.538Z,20.80
2018-09-09T10:00:20.163Z,20.80
2018-09-09T10:02:48.463Z,20.80
2018-09-09T10:05:16.743Z,20.80
2018-09-09T10:07:45.032Z,20.90
2018-09-09T10:10:13.301Z,20.90
2018-09-09T10:12:41.855Z,21.00
2018-09-09T10:15:10.170Z,21.00
2018-09-09T10:17:38.501Z,21.00
2018-09-09T10:20:06.772Z,21.00
2018-09-09T10:22:35.076Z,21.00
2018-09-09T10:25:03.369Z,20.90
2018-09-09T10:27:31.647Z,20.90
2018-09-09T10:29:59.961Z,20.90
2018-09-09T10:32:29.030Z,20.90
2018-09-09T10:34:57.365Z,20.90
2018-09-09T10:37:25.895Z,20.90
2018-09-09T10:39:54.223Z,20.90
2018-09-09T10:42:22.571Z,20.90
2018-09-09T10:44:50.936Z,20.90
2018-09-09T10:47:19.338Z,20.90
2018-09-09T10:49:47.649Z,20.90
2018-09-09T10:52:15.978Z,20.90
2018-09-09T10:54:44.270Z,21.00
2018-09-09T10:57:12.572Z,21.00
2018-09-09T10:59:41.063Z,21.00
2018-09-09T11:02:09.463Z,21.00
2018-09-09T11:04:37.760Z,21.00
2018-09-09T11:07:07.377Z,21.00
2018-09-09T11:09:35.794Z,21.10
2018-09-09T11:12:04.134Z,21.10
2018-09-09T11:14:32.430Z,21.20
2018-09-09T11:17:00.775Z,21.20
2018-09-09T11:19:29.046Z,21.20
2018-09-09T11:21:57.336Z,21.30
2018-09-09T11:24:25.632Z,21.20
2018-09-09T11:26:53.988Z,21.20
2018-09-09T11:29:22.264Z,21.20
2018-09-09T11:31:50.540Z,21.10
2018-09-09T11:34:18.829Z,21.10
2018-09-09T11:36:47.160Z,21.10
2018-09-09T11:39:15.432Z,21.10
2018-09-09T11:41:43.727Z,21.20
2018-09-09T11:44:12.138Z,21.10
2018-09-09T11:46:41.342Z,21.20
2018-09-09T11:49:09.618Z,21.20
2018-09-09T11:51:37.932Z,21.20
2018-09-09T11:54:06.220Z,21.20
2018-09-09T11:56:34.492Z,21.20
2018-09-09T11:59:02.770Z,21.20
2018-09-09T12:01:31.074Z,21.30
2018-09-09T12:03:59.376Z,21.30
2018-09-09T12:06:27.672Z,21.20
2018-09-09T12:08:56.270Z,21.20
2018-09-09T12:11:24.553Z,21.20
2018-09-09T12:13:52.893Z,21.20
2018-09-09T12:16:21.206Z,21.30
2018-09-09T12:18:49.512Z,21.20
2018-09-09T12:21:17.777Z,21.30
2018-09-09T12:23:46.097Z,21.30
2018-09-09T12:26:14.367Z,21.30
2018-09-09T12:28:42.645Z,21.20
2018-09-09T12:31:10.941Z,21.20
2018-09-09T12:33:39.215Z,21.20
2018-09-09T12:36:08.045Z,21.20
2018-09-09T12:38:36.311Z,21.20
2018-09-09T12:41:04.633Z,21.20
2018-09-09T12:43:38.399Z,21.20
2018-09-09T12:47:15.834Z,21.20
2018-09-09T12:49:44.234Z,21.20
2018-09-09T12:52:12.500Z,21.20
2018-09-09T12:54:40.776Z,21.10
2018-09-09T12:57:09.046Z,21.10
2018-09-09T12:59:37.376Z,21.20
2018-09-09T13:02:05.690Z,21.20
2018-09-09T13:04:33.986Z,21.30
2018-09-09T13:07:02.286Z,21.30
2018-09-09T13:09:30.584Z,21.30
2018-09-09T13:11:58.926Z,21.30
2018-09-09T13:14:27.290Z,21.30
2018-09-09T13:16:55.553Z,21.30
2018-09-09T13:19:23.866Z,21.30
2018-09-09T13:21:52.734Z,21.30
2018-09-09T13:24:21.052Z,21.30
2018-09-09T13:26:49.332Z,21.30
2018-09-09T13:29:17.624Z,21.30
2018-09-09T13:31:45.916Z,21.30
2018-09-09T13:34:14.190Z,21.30
2018-09-09T13:36:42.517Z,21.30
2018-09-09T13:39:11.677Z,21.30
2018-09-09T13:41:39.987Z,21.30
2018-09-09T13:44:08.298Z,21.30
2018-09-09T13:46:36.630Z,21.40
2018-09-09T13:49:04.939Z,21.30
2018-09-09T13:51:33.224Z,21.30
2018-09-09T13:54:01.509Z,21.30
2018-09-09T13:56:29.784Z,21.30
2018-09-09T13:58:58.071Z,21.20
2018-09-09T14:01:26.360Z,21.30
2018-09-09T14:03:54.827Z,21.30
2018-09-09T14:06:24.096Z,21.30
2018-09-09T14:08:52.381Z,21.30
2018-09-09T14:11:20.756Z,21.30
2018-09-09T14:13:49.067Z,21.30
2018-09-09T14:16:17.361Z,21.30
2018-09-09T14:18:45.690Z,21.30
2018-09-09T14:21:14.864Z,21.20
2018-09-09T14:23:43.175Z,21.20
2018-09-09T14:26:11.452Z,21.20
2018-09-09T14:28:39.724Z,21.20
2018-09-09T14:31:08.031Z,21.20
2018-09-09T14:33:36.333Z,21.30
2018-09-09T14:36:04.637Z,21.30
2018-09-09T14:38:33.840Z,21.30
2018-09-09T14:41:02.146Z,21.30
2018-09-09T14:43:30.430Z,21.30
2018-09-09T14:45:58.857Z,21.30
2018-09-09T14:48:28.018Z,21.50
2018-09-09T14:50:56.302Z,21.50
2018-09-09T14:53:24.673Z,21.50
2018-09-09T14:55:52.921Z,21.50
2018-09-09T14:58:21.762Z,21.60
2018-09-09T15:00:50.063Z,21.50
2018-09-09T15:03:18.378Z,21.50
2018-09-09T15:05:46.662Z,21.50
2018-09-09T15:08:14.916Z,21.50
2018-09-09T15:10:43.230Z,21.40
2018-09-09T15:13:11.502Z,21.40
2018-09-09T15:15:39.804Z,21.40
2018-09-09T15:18:08.109Z,21.40
2018-09-09T15:20:36.398Z,21.40
2018-09-09T15:23:04.689Z,21.40
2018-09-09T15:25:32.960Z,21.40
2018-09-09T15:28:01.307Z,21.50
2018-09-09T15:30:29.565Z,21.40
2018-09-09T15:32:57.895Z,21.40
2018-09-09T15:35:26.152Z,21.50
2018-09-09T15:37:54.448Z,21.40
2018-09-09T15:40:22.725Z,21.40
2018-09-09T15:42:51.017Z,21.40
2018-09-09T15:45:19.656Z,21.30
2018-09-09T15:47:47.889Z,21.40
2018-09-09T15:50:16.224Z,21.40
2018-09-09T15:52:45.496Z,21.40
2018-09-09T15:55:13.816Z,21.40
2018-09-09T15:57:42.136Z,21.30
2018-09-09T16:00:10.438Z,21.30
2018-09-09T16:02:38.742Z,21.30
2018-09-09T16:05:07.489Z,21.40
2018-09-09T16:07:35.764Z,21.40
2018-09-09T16:10:04.058Z,21.40
2018-09-09T16:12:32.473Z,21.40
2018-09-09T16:15:00.786Z,21.40
2018-09-09T16:17:29.113Z,21.40
2018-09-09T16:19:58.264Z,21.40
2018-09-09T16:22:26.530Z,21.40
2018-09-09T16:24:55.080Z,21.40
2018-09-09T16:27:23.355Z,21.40
2018-09-09T16:29:51.688Z,21.40
2018-09-09T16:32:20.095Z,21.40
2018-09-09T16:34:48.392Z,21.40
2018-09-09T16:37:17.948Z,21.50
2018-09-09T16:39:46.315Z,21.50
2018-09-09T16:42:15.395Z,21.50
2018-09-09T16:44:43.750Z,21.40
2018-09-09T16:47:12.617Z,21.40
2018-09-09T16:49:40.900Z,21.50
2018-09-09T16:52:09.443Z,21.40
2018-09-09T16:54:37.751Z,21.40
2018-09-09T16:57:06.116Z,21.40
2018-09-09T16:59:34.420Z,21.40
2018-09-09T17:02:02.841Z,21.40
2018-09-09T17:04:31.253Z,21.40
2018-09-09T17:06:59.807Z,21.40
2018-09-09T17:09:28.093Z,21.40
2018-09-09T17:11:56.424Z,21.40
2018-09-09T17:14:24.791Z,21.40
2018-09-09T17:16:53.381Z,21.30
2018-09-09T17:19:21.701Z,21.40
2018-09-09T17:21:50.139Z,21.40
2018-09-09T17:24:19.696Z,21.50
2018-09-09T17:26:48.076Z,21.50
2018-09-09T17:29:16.657Z,21.50
2018-09-09T17:31:44.966Z,21.50
2018-09-09T17:34:13.269Z,21.50
2018-09-09T17:36:42.603Z,21.50
2018-09-09T17:39:11.529Z,21.50
2018-09-09T17:41:40.060Z,21.50
2018-09-09T17:44:09.416Z,21.40
2018-09-09T17:46:37.743Z,21.40
2018-09-09T17:49:07.257Z,21.40
2018-09-09T17:51:35.598Z,21.40
2018-09-09T17:54:03.987Z,21.40
2018-09-09T17:56:32.358Z,21.40
2018-09-09T17:59:01.738Z,21.40
2018-09-09T18:01:30.076Z,21.40
2018-09-09T18:03:58.376Z,21.40
2018-09-09T18:06:27.369Z,21.40
2018-09-09T18:08:55.669Z,21.40
2018-09-09T18:11:24.447Z,21.50
2018-09-09T18:13:53.059Z,21.60
2018-09-09T18:16:21.391Z,21.60
2018-09-09T18:18:49.765Z,21.70
2018-09-09T18:21:18.068Z,21.60
2018-09-09T18:23:46.780Z,21.60
2018-09-09T18:26:15.831Z,21.50
2018-09-09T18:28:44.708Z,21.50
2018-09-09T18:31:13.033Z,21.50
2018-09-09T18:33:41.398Z,21.50
2018-09-09T18:36:09.769Z,21.50
2018-09-09T18:38:38.267Z,21.40
2018-09-09T18:41:06.647Z,21.40
2018-09-09T18:43:35.041Z,21.40
2018-09-09T18:46:03.509Z,21.40
2018-09-09T18:48:32.671Z,21.40
2018-09-09T18:51:01.210Z,21.40
2018-09-09T18:53:29.972Z,21.50
2018-09-09T18:55:58.356Z,21.50
2018-09-09T18:58:27.150Z,21.50
2018-09-09T19:00:55.558Z,21.50
2018-09-09T19:03:23.974Z,21.60
2018-09-09T19:05:52.369Z,21.50
2018-09-09T19:08:20.775Z,21.50
2018-09-09T19:10:49.752Z,21.50
2018-09-09T19:13:19.102Z,21.40
2018-09-09T19:15:47.531Z,21.40
2018-09-09T19:18:15.910Z,21.40
2018-09-09T19:20:44.312Z,21.40
2018-09-09T19:23:12.692Z,21.40
2018-09-09T19:25:42.742Z,21.40
2018-09-09T19:28:11.994Z,21.30
2018-09-09T19:30:40.446Z,21.30
2018-09-09T19:33:08.898Z,21.30
2018-09-09T19:35:37.244Z,21.40
2018-09-09T19:38:05.789Z,21.50
2018-09-09T19:40:34.272Z,21.50
2018-09-09T19:43:03.668Z,21.60
2018-09-09T19:45:32.074Z,21.60
2018-09-09T19:48:00.596Z,21.60
2018-09-09T19:50:29.170Z,21.60
2018-09-09T19:52:57.548Z,21.60
2018-09-09T19:55:25.904Z,21.60
2018-09-09T19:57:54.398Z,21.50
2018-09-09T20:00:22.753Z,21.50
2018-09-09T20:02:51.194Z,21.50
2018-09-09T20:05:19.669Z,21.40
2018-09-09T20:07:48.049Z,21.40
2018-09-09T20:10:16.416Z,21.40
2018-09-09T20:12:44.766Z,21.40
2018-09-09T20:15:13.185Z,21.40
2018-09-09T20:17:41.484Z,21.40
2018-09-09T20:20:10.759Z,21.40
2018-09-09T20:22:39.119Z,21.40
2018-09-09T20:25:07.439Z,21.40
2018-09-09T20:27:36.860Z,21.50
2018-09-09T20:30:05.213Z,21.60
2018-09-09T20:32:33.675Z,21.60
2018-09-09T20:35:02.032Z,21.60
2018-09-09T20:37:30.316Z,21.60
2018-09-09T20:39:58.663Z,21.60
2018-09-09T20:42:26.995Z,21.60
2018-09-09T20:44:55.294Z,21.50
2018-09-09T20:47:23.952Z,21.50
2018-09-09T20:49:52.226Z,21.50
2018-09-09T20:52:20.539Z,21.50
2018-09-09T20:54:48.841Z,21.50
2018-09-09T20:57:17.161Z,21.40
2018-09-09T20:59:45.439Z,21.50
2018-09-09T21:02:13.755Z,21.40
2018-09-09T21:04:42.053Z,21.40
2018-09-09T21:07:10.390Z,21.40
2018-09-09T21:09:38.736Z,21.40
2018-09-09T21:12:07.010Z,21.50
2018-09-09T21:14:35.305Z,21.50
2018-09-09T21:17:03.651Z,21.60
2018-09-09T21:19:31.963Z,21.70
2018-09-09T21:22:00.247Z,21.70
2018-09-09T21:24:28.554Z,21.60
2018-09-09T21:26:56.853Z,21.60
2018-09-09T21:29:25.213Z,21.60
2018-09-09T21:31:53.557Z,21.50
2018-09-09T21:34:21.809Z,21.50
2018-09-09T21:36:50.089Z,21.50
2018-09-09T21:39:18.408Z,21.50
2018-09-09T21:41:46.675Z,21.40
2018-09-09T21:44:14.976Z,21.40
2018-09-09T21:46:43.235Z,21.40
2018-09-09T21:49:21.518Z,21.40
2018-09-09T21:51:51.333Z,21.40
2018-09-09T21:54:19.617Z,21.40
2018-09-09T21:56:47.893Z,21.40
2018-09-09T21:59:16.179Z,21.40
2018-09-09T22:01:49.784Z,21.40
2018-09-09T22:04:18.088Z,21.40
2018-09-09T22:06:46.392Z,21.40
2018-09-09T22:09:14.647Z,21.40
2018-09-09T22:11:42.928Z,21.50
2018-09-09T22:14:11.211Z,21.50
2018-09-09T22:16:39.487Z,21.60
2018-09-09T22:19:07.832Z,21.60
2018-09-09T22:21:36.127Z,21.60
2018-09-09T22:24:04.409Z,21.60
2018-09-09T22:26:33.272Z,21.50
2018-09-09T22:29:01.558Z,21.50
2018-09-09T22:31:29.825Z,21.50
2018-09-09T22:33:58.098Z,21.40
2018-09-09T22:36:26.385Z,21.50
2018-09-09T22:38:54.673Z,21.40
2018-09-09T22:41:22.948Z,21.40
2018-09-09T22:43:51.243Z,21.40
2018-09-09T22:46:19.503Z,21.40
2018-09-09T22:48:47.775Z,21.40
2018-09-09T22:51:16.103Z,21.40
2018-09-09T22:53:44.396Z,21.40
2018-09-09T22:56:12.663Z,21.50
2018-09-09T22:58:40.971Z,21.50
2018-09-09T23:01:09.253Z,21.50
2018-09-09T23:03:37.529Z,21.60
2018-09-09T23:06:05.796Z,21.50
2018-09-09T23:08:34.106Z,21.60
2018-09-09T23:11:02.493Z,21.50
2018-09-09T23:13:31.063Z,21.50
2018-09-09T23:15:59.372Z,21.50
2018-09-09T23:18:27.619Z,21.40
2018-09-09T23:20:55.875Z,21.40
2018-09-09T23:23:24.124Z,21.40
2018-09-09T23:25:52.431Z,21.40
2018-09-09T23:28:20.708Z,21.50
2018-09-09T23:30:49.006Z,21.50
2018-09-09T23:33:17.292Z,21.50
2018-09-09T23:35:45.580Z,21.50
2018-09-09T23:38:13.843Z,21.50
2018-09-09T23:40:42.815Z,21.40
2018-09-09T23:43:11.092Z,21.40
2018-09-09T23:45:39.414Z,21.40
2018-09-09T23:48:07.934Z,21.40
2018-09-09T23:50:36.222Z,21.40
2018-09-09T23:53:04.531Z,21.40
2018-09-09T23:55:32.790Z,21.40
2018-09-09T23:58:01.094Z,21.40
